Terminal Aerodrome Forecast
Issued by NWS

Home | Current Version | Previous Version | Text Only | Print | Product List | Glossary Off
Versions: 1 2 3 4 5 6 7 8 9 10 11 12 13 14 15 16

000
FTUS42 KMHX 231700
TAFOAJ
TAF
KOAJ 231739Z 2318/2418 01010KT P6SM VCSH BKN035 OVC070
     FM232200 02008KT 5SM -RA BKN020 OVC035
     FM240500 03010KT 3SM RA BR BKN007 OVC015
     FM241500 03009KT 5SM -RA BR OVC015
      AMD LTD TO CLD VIS AND WIND=

USA.gov is the U.S. government's official web portal to all federal, state and local government web resources and services.